sensor_id;sensor_type;location;lat;lon;timestamp;pressure;altitude;pressure_sealevel;temperature;humidity
34145;BME280;20422;53.014;8.886;2022-09-29T08:26:19;100115.16;;;14.35;89.08
34145;BME280;20422;53.014;8.886;2022-09-29T08:29:45;100139.66;;;13.94;90.52
34145;BME280;20422;53.014;8.886;2022-09-29T08:36:51;100146.75;;;13.85;93.42
34145;BME280;20422;53.014;8.886;2022-09-29T08:40:28;100154.84;;;13.85;93.68
34145;BME280;20422;53.014;8.886;2022-09-29T08:44:10;100119.25;;;13.11;95.25
34145;BME280;20422;53.014;8.886;2022-09-29T08:47:57;100122.53;;;12.73;97.15
34145;BME280;20422;53.014;8.886;2022-09-29T08:50:43;100166.94;;;12.67;98.86
34145;BME280;20422;53.014;8.886;2022-09-29T08:54:29;100153.72;;;12.75;100.00
34145;BME280;20422;53.014;8.886;2022-09-29T08:58:02;100173.63;;;12.73;99.52
34145;BME280;20422;53.014;8.886;2022-09-29T09:01:56;100163.50;;;13.07;98.33
34145;BME280;20422;53.014;8.886;2022-09-29T09:09:35;100133.25;;;13.66;97.16
34145;BME280;20422;53.014;8.886;2022-09-29T09:16:05;100139.13;;;14.09;94.04
34145;BME280;20422;53.014;8.886;2022-09-29T09:27:01;100081.56;;;14.39;93.62
34145;BME280;20422;53.014;8.886;2022-09-29T09:30:12;100101.84;;;14.63;91.75
34145;BME280;20422;53.014;8.886;2022-09-29T09:34:04;100109.16;;;15.09;93.27
34145;BME280;20422;53.014;8.886;2022-09-29T09:37:21;100159.69;;;15.91;90.63
34145;BME280;20422;53.014;8.886;2022-09-29T09:53:57;100159.88;;;14.86;90.44
34145;BME280;20422;53.014;8.886;2022-09-29T09:56:43;100162.31;;;15.36;94.29
34145;BME280;20422;53.014;8.886;2022-09-29T10:01:44;100168.97;;;14.95;89.15
34145;BME280;20422;53.014;8.886;2022-09-29T10:04:12;100173.53;;;14.75;91.46
34145;BME280;20422;53.014;8.886;2022-09-29T10:06:38;100168.56;;;14.80;90.33
34145;BME280;20422;53.014;8.886;2022-09-29T10:09:04;100146.69;;;14.54;90.53
34145;BME280;20422;53.014;8.886;2022-09-29T10:11:30;100181.50;;;14.57;92.62
34145;BME280;20422;53.014;8.886;2022-09-29T10:13:59;100176.78;;;14.78;91.52
34145;BME280;20422;53.014;8.886;2022-09-29T10:16:39;100183.66;;;15.20;92.49
34145;BME280;20422;53.014;8.886;2022-09-29T10:19:08;100173.59;;;15.68;93.27
34145;BME280;20422;53.014;8.886;2022-09-29T10:21:40;100172.84;;;15.76;89.04
34145;BME280;20422;53.014;8.886;2022-09-29T10:24:23;100165.22;;;15.89;89.48
34145;BME280;20422;53.014;8.886;2022-09-29T10:26:53;100174.13;;;15.72;89.45
34145;BME280;20422;53.014;8.886;2022-09-29T10:29:48;100179.53;;;15.72;87.32
34145;BME280;20422;53.014;8.886;2022-09-29T10:32:33;100169.72;;;15.71;87.99
34145;BME280;20422;53.014;8.886;2022-09-29T10:35:17;100172.47;;;15.61;88.28
34145;BME280;20422;53.014;8.886;2022-09-29T10:37:47;100169.03;;;15.96;88.76
34145;BME280;20422;53.014;8.886;2022-09-29T10:40:18;100175.72;;;16.20;86.68
34145;BME280;20422;53.014;8.886;2022-09-29T10:42:49;100167.53;;;16.47;85.07
34145;BME280;20422;53.014;8.886;2022-09-29T10:47:51;100178.13;;;16.23;83.80
34145;BME280;20422;53.014;8.886;2022-09-29T10:50:53;100150.06;;;16.24;84.31
34145;BME280;20422;53.014;8.886;2022-09-29T10:53:38;100184.88;;;16.54;85.35
34145;BME280;20422;53.014;8.886;2022-09-29T10:56:22;100187.28;;;16.12;84.36
34145;BME280;20422;53.014;8.886;2022-09-29T10:59:02;100175.22;;;15.79;84.77
34145;BME280;20422;53.014;8.886;2022-09-29T11:01:31;100186.66;;;15.26;86.59
34145;BME280;20422;53.014;8.886;2022-09-29T11:04:06;100183.13;;;15.06;89.08
34145;BME280;20422;53.014;8.886;2022-09-29T11:06:41;100160.72;;;14.87;87.85
34145;BME280;20422;53.014;8.886;2022-09-29T11:09:28;100187.66;;;15.06;87.80
34145;BME280;20422;53.014;8.886;2022-09-29T11:11:57;100171.38;;;14.88;88.01
34145;BME280;20422;53.014;8.886;2022-09-29T11:14:43;100192.69;;;14.81;86.93
34145;BME280;20422;53.014;8.886;2022-09-29T11:17:37;100193.91;;;15.16;87.84
34145;BME280;20422;53.014;8.886;2022-09-29T11:20:06;100185.63;;;15.37;84.67
34145;BME280;20422;53.014;8.886;2022-09-29T11:22:41;100184.41;;;15.68;83.79
34145;BME280;20422;53.014;8.886;2022-09-29T11:25:31;100180.34;;;15.82;82.40
34145;BME280;20422;53.014;8.886;2022-09-29T11:28:33;100196.56;;;16.27;84.87
34145;BME280;20422;53.014;8.886;2022-09-29T11:36:43;100199.06;;;15.93;81.64
34145;BME280;20422;53.014;8.886;2022-09-29T11:39:14;100194.00;;;16.08;82.08
34145;BME280;20422;53.014;8.886;2022-09-29T11:42:25;100195.91;;;15.70;82.45
34145;BME280;20422;53.014;8.886;2022-09-29T11:45:00;100199.03;;;15.56;84.36
34145;BME280;20422;53.014;8.886;2022-09-29T11:47:42;100187.69;;;15.53;86.42
34145;BME280;20422;53.014;8.886;2022-09-29T11:55:31;100207.13;;;15.19;85.98
34145;BME280;20422;53.014;8.886;2022-09-29T12:16:10;100161.69;;;15.05;85.80
34145;BME280;20422;53.014;8.886;2022-09-29T12:21:50;100136.31;;;14.78;82.57
34145;BME280;20422;53.014;8.886;2022-09-29T12:24:42;100203.97;;;15.24;82.00
34145;BME280;20422;53.014;8.886;2022-09-29T12:27:24;100207.66;;;15.23;83.03
34145;BME280;20422;53.014;8.886;2022-09-29T12:30:01;100127.94;;;14.72;84.99
34145;BME280;20422;53.014;8.886;2022-09-29T12:38:41;100203.25;;;15.22;82.76
34145;BME280;20422;53.014;8.886;2022-09-29T12:41:33;100201.22;;;15.43;84.11
34145;BME280;20422;53.014;8.886;2022-09-29T12:44:27;100197.00;;;16.05;83.39
34145;BME280;20422;53.014;8.886;2022-09-29T12:54:27;100189.41;;;17.07;78.66
34145;BME280;20422;53.014;8.886;2022-09-29T12:57:37;100138.94;;;16.62;78.97
34145;BME280;20422;53.014;8.886;2022-09-29T13:00:31;100192.38;;;16.78;76.31
34145;BME280;20422;53.014;8.886;2022-09-29T13:09:02;100193.50;;;16.22;76.46
34145;BME280;20422;53.014;8.886;2022-09-29T13:20:18;100211.69;;;15.56;80.50
34145;BME280;20422;53.014;8.886;2022-09-29T13:31:09;100189.44;;;15.44;80.29
34145;BME280;20422;53.014;8.886;2022-09-29T13:33:39;100149.56;;;15.19;78.80
34145;BME280;20422;53.014;8.886;2022-09-29T13:36:38;100210.16;;;15.63;78.96
34145;BME280;20422;53.014;8.886;2022-09-29T13:39:16;100146.56;;;15.31;76.89
34145;BME280;20422;53.014;8.886;2022-09-29T13:41:53;100165.25;;;15.42;75.49
34145;BME280;20422;53.014;8.886;2022-09-29T13:44:26;100159.63;;;15.36;76.10
34145;BME280;20422;53.014;8.886;2022-09-29T13:47:32;100217.22;;;15.74;76.76
34145;BME280;20422;53.014;8.886;2022-09-29T13:50:42;100223.63;;;15.73;75.52
34145;BME280;20422;53.014;8.886;2022-09-29T13:53:37;100159.63;;;15.36;77.15
34145;BME280;20422;53.014;8.886;2022-09-29T13:58:35;100177.88;;;15.52;79.61
34145;BME280;20422;53.014;8.886;2022-09-29T14:01:11;100169.09;;;15.40;82.08
34145;BME280;20422;53.014;8.886;2022-09-29T14:03:39;100211.34;;;15.78;80.87
34145;BME280;20422;53.014;8.886;2022-09-29T14:06:26;100157.66;;;15.28;81.12
34145;BME280;20422;53.014;8.886;2022-09-29T14:09:15;100230.91;;;15.53;80.90
34145;BME280;20422;53.014;8.886;2022-09-29T14:11:51;100158.28;;;15.13;82.05
34145;BME280;20422;53.014;8.886;2022-09-29T14:14:29;100161.72;;;14.95;83.45
34145;BME280;20422;53.014;8.886;2022-09-29T14:17:37;100214.50;;;15.27;83.01
34145;BME280;20422;53.014;8.886;2022-09-29T14:20:19;100219.47;;;15.31;80.69
34145;BME280;20422;53.014;8.886;2022-09-29T14:25:30;100190.25;;;14.98;83.13
34145;BME280;20422;53.014;8.886;2022-09-29T14:28:12;100165.00;;;14.79;82.71
34145;BME280;20422;53.014;8.886;2022-09-29T14:30:52;100169.69;;;14.68;83.22
34145;BME280;20422;53.014;8.886;2022-09-29T14:33:39;100172.25;;;14.79;82.94
34145;BME280;20422;53.014;8.886;2022-09-29T14:36:13;100217.22;;;14.98;82.96
34145;BME280;20422;53.014;8.886;2022-09-29T14:38:44;100234.69;;;15.13;82.82
34145;BME280;20422;53.014;8.886;2022-09-29T14:41:20;100227.56;;;15.22;82.21
34145;BME280;20422;53.014;8.886;2022-09-29T14:44:14;100177.34;;;14.92;83.56
34145;BME280;20422;53.014;8.886;2022-09-29T14:53:09;100230.31;;;14.93;83.72
34145;BME280;20422;53.014;8.886;2022-09-29T14:55:58;100247.63;;;14.90;84.07
34145;BME280;20422;53.014;8.886;2022-09-29T15:02:21;100195.09;;;14.46;83.86
34145;BME280;20422;53.014;8.886;2022-09-29T15:04:46;100214.38;;;14.51;84.47
34145;BME280;20422;53.014;8.886;2022-09-29T15:07:15;100222.94;;;14.56;83.60
34145;BME280;20422;53.014;8.886;2022-09-29T15:09:59;100270.63;;;14.85;82.35
34145;BME280;20422;53.014;8.886;2022-09-29T15:12:29;100218.91;;;14.41;82.44
34145;BME280;20422;53.014;8.886;2022-09-29T15:15:00;100227.88;;;14.51;83.58
34145;BME280;20422;53.014;8.886;2022-09-29T15:17:52;100273.03;;;14.78;84.43
34145;BME280;20422;53.014;8.886;2022-09-29T15:20:42;100216.53;;;14.47;85.22
34145;BME280;20422;53.014;8.886;2022-09-29T15:23:34;100260.25;;;14.80;86.18
34145;BME280;20422;53.014;8.886;2022-09-29T15:26:13;100191.50;;;14.36;84.48
34145;BME280;20422;53.014;8.886;2022-09-29T15:28:58;100209.41;;;14.37;85.94
34145;BME280;20422;53.014;8.886;2022-09-29T15:31:48;100206.88;;;14.45;86.35
34145;BME280;20422;53.014;8.886;2022-09-29T15:34:18;100281.13;;;14.78;84.51
34145;BME280;20422;53.014;8.886;2022-09-29T15:36:49;100192.06;;;14.20;85.96
34145;BME280;20422;53.014;8.886;2022-09-29T15:41:44;100244.69;;;14.34;87.20
34145;BME280;20422;53.014;8.886;2022-09-29T15:44:45;100284.44;;;14.41;87.65
34145;BME280;20422;53.014;8.886;2022-09-29T15:47:24;100220.78;;;14.00;87.92
34145;BME280;20422;53.014;8.886;2022-09-29T15:49:52;100224.31;;;13.91;88.13
34145;BME280;20422;53.014;8.886;2022-09-29T15:52:40;100258.84;;;14.16;88.92
34145;BME280;20422;53.014;8.886;2022-09-29T15:55:13;100228.69;;;13.92;89.79
34145;BME280;20422;53.014;8.886;2022-09-29T15:57:52;100232.53;;;13.89;89.83
34145;BME280;20422;53.014;8.886;2022-09-29T16:03:08;100300.56;;;14.22;91.33
34145;BME280;20422;53.014;8.886;2022-09-29T16:06:05;100281.66;;;14.03;90.91
34145;BME280;20422;53.014;8.886;2022-09-29T16:08:47;100252.69;;;13.65;91.72
34145;BME280;20422;53.014;8.886;2022-09-29T16:11:38;100247.38;;;13.53;92.71
34145;BME280;20422;53.014;8.886;2022-09-29T16:14:27;100260.72;;;13.55;93.19
34145;BME280;20422;53.014;8.886;2022-09-29T16:17:05;100263.81;;;13.50;93.65
34145;BME280;20422;53.014;8.886;2022-09-29T16:19:37;100266.97;;;13.35;96.67
34145;BME280;20422;53.014;8.886;2022-09-29T16:22:30;100344.75;;;13.58;99.47
34145;BME280;20422;53.014;8.886;2022-09-29T16:25:27;100338.91;;;13.53;99.74
34145;BME280;20422;53.014;8.886;2022-09-29T16:28:01;100268.97;;;13.00;100.00
34145;BME280;20422;53.014;8.886;2022-09-29T16:31:16;100349.81;;;13.52;100.00
34145;BME280;20422;53.014;8.886;2022-09-29T16:33:58;100286.66;;;13.03;100.00
34145;BME280;20422;53.014;8.886;2022-09-29T16:37:05;100364.91;;;13.43;100.00
34145;BME280;20422;53.014;8.886;2022-09-29T16:39:51;100347.38;;;13.17;100.00
34145;BME280;20422;53.014;8.886;2022-09-29T16:42:29;100355.56;;;13.26;100.00
34145;BME280;20422;53.014;8.886;2022-09-29T16:44:59;100281.66;;;12.78;100.00
34145;BME280;20422;53.014;8.886;2022-09-29T16:47:32;100298.66;;;12.67;100.00
34145;BME280;20422;53.014;8.886;2022-09-29T16:50:02;100316.28;;;12.60;100.00
34145;BME280;20422;53.014;8.886;2022-09-29T16:52:47;100376.22;;;12.94;100.00
34145;BME280;20422;53.014;8.886;2022-09-29T16:55:31;100361.22;;;12.80;100.00
34145;BME280;20422;53.014;8.886;2022-09-29T16:58:11;100310.34;;;12.34;100.00
34145;BME280;20422;53.014;8.886;2022-09-29T17:00:43;100337.47;;;12.42;100.00
34145;BME280;20422;53.014;8.886;2022-09-29T17:03:16;100315.88;;;12.10;100.00
34145;BME280;20422;53.014;8.886;2022-09-29T17:05:45;100336.00;;;12.16;100.00
34145;BME280;20422;53.014;8.886;2022-09-29T17:08:26;100379.84;;;12.27;100.00
34145;BME280;20422;53.014;8.886;2022-09-29T17:11:20;100401.81;;;12.32;100.00
34145;BME280;20422;53.014;8.886;2022-09-29T17:13:46;100343.81;;;11.96;100.00
34145;BME280;20422;53.014;8.886;2022-09-29T17:16:15;100328.44;;;11.87;100.00
34145;BME280;20422;53.014;8.886;2022-09-29T17:18:53;100391.94;;;12.22;100.00
34145;BME280;20422;53.014;8.886;2022-09-29T17:21:26;100385.72;;;12.21;100.00
34145;BME280;20422;53.014;8.886;2022-09-29T17:24:10;100347.34;;;11.86;100.00
34145;BME280;20422;53.014;8.886;2022-09-29T17:26:46;100397.31;;;12.22;100.00
34145;BME280;20422;53.014;8.886;2022-09-29T17:29:32;100399.38;;;12.29;100.00
34145;BME280;20422;53.014;8.886;2022-09-29T17:31:59;100390.59;;;12.27;100.00
34145;BME280;20422;53.014;8.886;2022-09-29T17:34:33;100350.88;;;11.97;100.00
34145;BME280;20422;53.014;8.886;2022-09-29T17:37:16;100392.88;;;12.21;100.00
34145;BME280;20422;53.014;8.886;2022-09-29T17:39:45;100417.47;;;12.27;100.00
34145;BME280;20422;53.014;8.886;2022-09-29T17:42:14;100348.88;;;11.77;100.00
34145;BME280;20422;53.014;8.886;2022-09-29T17:44:48;100348.53;;;11.70;100.00
34145;BME280;20422;53.014;8.886;2022-09-29T17:47:18;100354.56;;;11.85;100.00
34145;BME280;20422;53.014;8.886;2022-09-29T17:50:35;100427.09;;;12.07;100.00
34145;BME280;20422;53.014;8.886;2022-09-29T17:53:06;100371.47;;;11.74;100.00
34145;BME280;20422;53.014;8.886;2022-09-29T17:55:37;100402.97;;;11.84;100.00
34145;BME280;20422;53.014;8.886;2022-09-29T17:58:17;100440.63;;;12.06;100.00
34145;BME280;20422;53.014;8.886;2022-09-29T18:00:49;100436.94;;;11.96;100.00
34145;BME280;20422;53.014;8.886;2022-09-29T18:03:24;100439.59;;;11.85;100.00
34145;BME280;20422;53.014;8.886;2022-09-29T18:05:53;100431.50;;;11.73;100.00
34145;BME280;20422;53.014;8.886;2022-09-29T18:08:26;100392.16;;;11.50;100.00
34145;BME280;20422;53.014;8.886;2022-09-29T18:11:02;100412.66;;;11.62;100.00
34145;BME280;20422;53.014;8.886;2022-09-29T18:13:31;100409.34;;;11.59;100.00
34145;BME280;20422;53.014;8.886;2022-09-29T18:16:00;100401.91;;;11.62;100.00
34145;BME280;20422;53.014;8.886;2022-09-29T18:18:37;100383.56;;;11.45;100.00
